SJX761 RCTP-WIII
Flight info
| Callsign | SJX761 |
|---|---|
| Flight time | N/A |
| Altitude | 36000 |
| Route | TINHO1A TINHO Q11 TITUS B591 JICHI Q11 POTIB M646 ABVAR/N0477F380 M646 SANRO B591 LUBAN/N0477F370 W3 OLRAX/N0476F380 M646 VJN P648 AMBOY |
| Aircraft | A339/H-SADE1E2E3GHIJ3J5M1P2RWXY/LB2D1 |
Departure
| Time | 2026-05-06 07:52 |
|---|---|
| Airport | Taiwan Taoyuan International Airport (RCTP) |
Arrival
| Time | N/A |
|---|---|
| Airport | Soekarno-Hatta International Airport (WIII) |
| Time | Latitude | Longitude | Altitude | Speed | Heading |
|---|---|---|---|---|---|
| 2026-05-06 07:18 | 25.07854 | 121.22980 | 124 ft | 0 kts | 139° |
| 2026-05-06 07:37 | 25.07865 | 121.22971 | 123 ft | 2 kts | 138° |
| 2026-05-06 07:37 | 25.07876 | 121.22959 | 123 ft | 2 kts | 139° |
| 2026-05-06 07:38 | 25.07887 | 121.22948 | 123 ft | 2 kts | 139° |
| 2026-05-06 07:38 | 25.07898 | 121.22937 | 123 ft | 2 kts | 136° |
| 2026-05-06 07:38 | 25.07909 | 121.22926 | 123 ft | 2 kts | 138° |
| 2026-05-06 07:38 | 25.07921 | 121.22915 | 123 ft | 2 kts | 138° |
| 2026-05-06 07:39 | 25.07933 | 121.22907 | 123 ft | 2 kts | 182° |
| 2026-05-06 07:39 | 25.07946 | 121.22911 | 123 ft | 1 kts | 225° |
| 2026-05-06 07:39 | 25.07944 | 121.22909 | 123 ft | 3 kts | 224° |
| 2026-05-06 07:39 | 25.07935 | 121.22900 | 123 ft | 0 kts | 224° |
| 2026-05-06 07:42 | 25.07935 | 121.22899 | 123 ft | 0 kts | 224° |
| 2026-05-06 07:43 | 25.07927 | 121.22889 | 123 ft | 2 kts | 229° |
| 2026-05-06 07:43 | 25.07909 | 121.22866 | 123 ft | 4 kts | 229° |
| 2026-05-06 07:43 | 25.07881 | 121.22831 | 123 ft | 6 kts | 229° |
| 2026-05-06 07:43 | 25.07846 | 121.22785 | 123 ft | 8 kts | 229° |
| 2026-05-06 07:44 | 25.07803 | 121.22732 | 123 ft | 10 kts | 229° |
| 2026-05-06 07:44 | 25.07755 | 121.22670 | 123 ft | 11 kts | 229° |
| 2026-05-06 07:44 | 25.07701 | 121.22602 | 123 ft | 12 kts | 229° |
| 2026-05-06 07:44 | 25.07644 | 121.22529 | 123 ft | 13 kts | 229° |
| 2026-05-06 07:45 | 25.07583 | 121.22450 | 123 ft | 13 kts | 230° |
| 2026-05-06 07:45 | 25.07519 | 121.22369 | 123 ft | 14 kts | 229° |
| 2026-05-06 07:45 | 25.07453 | 121.22284 | 123 ft | 14 kts | 229° |
| 2026-05-06 07:45 | 25.07383 | 121.22195 | 123 ft | 15 kts | 229° |
| 2026-05-06 07:46 | 25.07323 | 121.22128 | 123 ft | 8 kts | 203° |
| 2026-05-06 07:46 | 25.07262 | 121.22152 | 124 ft | 10 kts | 140° |
| 2026-05-06 07:46 | 25.07205 | 121.22210 | 124 ft | 12 kts | 138° |
| 2026-05-06 07:46 | 25.07138 | 121.22275 | 124 ft | 13 kts | 138° |
| 2026-05-06 07:47 | 25.07063 | 121.22347 | 124 ft | 15 kts | 139° |
| 2026-05-06 07:47 | 25.06981 | 121.22426 | 124 ft | 16 kts | 139° |
| 2026-05-06 07:47 | 25.06896 | 121.22508 | 124 ft | 16 kts | 139° |
| 2026-05-06 07:47 | 25.06808 | 121.22591 | 124 ft | 16 kts | 139° |
| 2026-05-06 07:48 | 25.06726 | 121.22655 | 124 ft | 12 kts | 172° |
| 2026-05-06 07:48 | 25.06664 | 121.22629 | 124 ft | 3 kts | 206° |
| 2026-05-06 07:48 | 25.06638 | 121.22600 | 124 ft | 9 kts | 229° |
| 2026-05-06 07:48 | 25.06587 | 121.22529 | 124 ft | 12 kts | 232° |
| 2026-05-06 07:49 | 25.06527 | 121.22450 | 124 ft | 13 kts | 229° |
| 2026-05-06 07:49 | 25.06466 | 121.22370 | 124 ft | 11 kts | 229° |
| 2026-05-06 07:49 | 25.06404 | 121.22357 | 124 ft | 10 kts | 155° |
| 2026-05-06 07:49 | 25.06344 | 121.22407 | 124 ft | 11 kts | 140° |
| 2026-05-06 07:50 | 25.06283 | 121.22464 | 124 ft | 11 kts | 141° |
| 2026-05-06 07:50 | 25.06229 | 121.22513 | 124 ft | 4 kts | 131° |
| 2026-05-06 07:50 | 25.06234 | 121.22541 | 124 ft | 4 kts | 48° |
| 2026-05-06 07:50 | 25.06237 | 121.22545 | 124 ft | 0 kts | 49° |
| 2026-05-06 07:51 | 25.06299 | 121.22625 | 124 ft | 42 kts | 50° |
| 2026-05-06 07:51 | 25.06628 | 121.23043 | 124 ft | 101 kts | 49° |
| 2026-05-06 07:51 | 25.07208 | 121.23779 | 124 ft | 150 kts | 49° |
| 2026-05-06 07:51 | 25.07958 | 121.24739 | 365 ft | 171 kts | 50° |
| 2026-05-06 07:52 | 25.08718 | 121.25723 | 935 ft | 170 kts | 50° |
| 2026-05-06 07:52 | 25.09473 | 121.26720 | 1505 ft | 172 kts | 50° |
| 2026-05-06 07:52 | 25.10199 | 121.27763 | 2005 ft | 176 kts | 64° |
| 2026-05-06 07:52 | 25.10427 | 121.29143 | 2263 ft | 191 kts | 89° |
| 2026-05-06 07:53 | 25.10183 | 121.30630 | 2510 ft | 209 kts | 116° |
| 2026-05-06 07:53 | 25.09271 | 121.31943 | 2764 ft | 226 kts | 139° |
| 2026-05-06 07:53 | 25.08015 | 121.33089 | 3049 ft | 242 kts | 138° |
| 2026-05-06 07:53 | 25.06714 | 121.34349 | 3336 ft | 258 kts | 137° |
| 2026-05-06 07:54 | 25.05336 | 121.35692 | 3727 ft | 270 kts | 138° |
| 2026-05-06 07:54 | 25.03907 | 121.37085 | 4345 ft | 273 kts | 139° |
| 2026-05-06 07:54 | 25.02483 | 121.38467 | 4986 ft | 275 kts | 139° |
| 2026-05-06 07:54 | 25.01050 | 121.39851 | 5616 ft | 278 kts | 140° |
| 2026-05-06 07:55 | 24.99576 | 121.41272 | 6233 ft | 282 kts | 140° |
| 2026-05-06 07:55 | 24.98103 | 121.42688 | 6836 ft | 286 kts | 140° |
| 2026-05-06 07:55 | 24.96583 | 121.44151 | 7473 ft | 289 kts | 140° |
| 2026-05-06 07:55 | 24.95078 | 121.45602 | 8125 ft | 290 kts | 141° |
| 2026-05-06 07:56 | 24.93569 | 121.47060 | 8752 ft | 292 kts | 141° |
| 2026-05-06 07:56 | 24.92019 | 121.48551 | 9353 ft | 296 kts | 141° |
| 2026-05-06 07:56 | 24.90467 | 121.50042 | 9923 ft | 299 kts | 142° |
| 2026-05-06 07:56 | 24.88892 | 121.51551 | 10401 ft | 306 kts | 141° |
| 2026-05-06 07:57 | 24.87254 | 121.53120 | 10661 ft | 320 kts | 141° |
| 2026-05-06 07:57 | 24.85521 | 121.54779 | 10934 ft | 333 kts | 141° |
| 2026-05-06 07:57 | 24.83741 | 121.56488 | 11208 ft | 348 kts | 141° |
| 2026-05-06 07:57 | 24.81888 | 121.58266 | 11432 ft | 361 kts | 141° |
| 2026-05-06 07:58 | 24.79969 | 121.60107 | 11679 ft | 374 kts | 141° |
| 2026-05-06 07:58 | 24.77987 | 121.62013 | 11886 ft | 386 kts | 141° |
| 2026-05-06 07:58 | 24.75919 | 121.63996 | 12166 ft | 396 kts | 141° |
| 2026-05-06 07:58 | 24.73832 | 121.65998 | 12597 ft | 401 kts | 141° |
| 2026-05-06 07:59 | 24.71721 | 121.68019 | 13081 ft | 403 kts | 141° |
| 2026-05-06 07:59 | 24.69610 | 121.70042 | 13525 ft | 406 kts | 141° |
| 2026-05-06 07:59 | 24.67458 | 121.72102 | 13963 ft | 410 kts | 141° |
| 2026-05-06 07:59 | 24.65311 | 121.74157 | 14381 ft | 413 kts | 141° |
| 2026-05-06 08:00 | 24.63112 | 121.76258 | 14829 ft | 417 kts | 140° |
| 2026-05-06 08:00 | 24.60919 | 121.78350 | 15305 ft | 420 kts | 140° |
| 2026-05-06 08:00 | 24.58711 | 121.80458 | 15781 ft | 424 kts | 140° |
| 2026-05-06 08:00 | 24.56494 | 121.82574 | 16226 ft | 427 kts | 140° |
| 2026-05-06 08:01 | 24.54237 | 121.84727 | 16665 ft | 430 kts | 140° |
| 2026-05-06 08:01 | 24.51985 | 121.86878 | 17094 ft | 433 kts | 139° |
| 2026-05-06 08:01 | 24.49683 | 121.89075 | 17516 ft | 437 kts | 139° |
| 2026-05-06 08:01 | 24.47390 | 121.91263 | 17965 ft | 440 kts | 139° |
| 2026-05-06 08:02 | 24.45084 | 121.93463 | 18389 ft | 443 kts | 139° |
| 2026-05-06 08:02 | 24.42734 | 121.95702 | 18792 ft | 447 kts | 139° |
| 2026-05-06 08:02 | 24.40402 | 121.97923 | 19211 ft | 450 kts | 139° |
| 2026-05-06 08:02 | 24.37976 | 122.00111 | 19644 ft | 453 kts | 147° |
| 2026-05-06 08:03 | 24.35096 | 122.01513 | 20013 ft | 453 kts | 168° |
| 2026-05-06 08:03 | 24.31977 | 122.01768 | 20434 ft | 450 kts | 188° |
| 2026-05-06 08:03 | 24.28925 | 122.01000 | 20856 ft | 447 kts | 201° |
| 2026-05-06 08:03 | 24.25942 | 121.99960 | 21223 ft | 451 kts | 201° |
| 2026-05-06 08:04 | 24.22929 | 121.98920 | 21583 ft | 455 kts | 200° |
| 2026-05-06 08:04 | 24.19917 | 121.97902 | 21974 ft | 458 kts | 200° |
| 2026-05-06 08:04 | 24.16845 | 121.96879 | 22365 ft | 461 kts | 200° |
| 2026-05-06 08:04 | 24.13789 | 121.95872 | 22756 ft | 463 kts | 199° |
| 2026-05-06 08:05 | 24.10665 | 121.94849 | 23152 ft | 466 kts | 199° |
| 2026-05-06 08:05 | 24.07536 | 121.93829 | 23534 ft | 468 kts | 199° |
| 2026-05-06 08:05 | 24.04420 | 121.92816 | 23901 ft | 471 kts | 200° |
| 2026-05-06 08:05 | 24.01254 | 121.91787 | 24245 ft | 474 kts | 200° |
| 2026-05-06 08:06 | 23.98099 | 121.90759 | 24598 ft | 477 kts | 200° |
| 2026-05-06 08:06 | 23.94890 | 121.89717 | 24956 ft | 479 kts | 200° |
| 2026-05-06 08:06 | 23.91704 | 121.88682 | 25309 ft | 482 kts | 200° |
| 2026-05-06 08:06 | 23.88457 | 121.87627 | 25660 ft | 484 kts | 200° |
| 2026-05-06 08:07 | 23.85246 | 121.86585 | 25989 ft | 486 kts | 200° |
| 2026-05-06 08:07 | 23.82000 | 121.85532 | 26302 ft | 488 kts | 200° |
| 2026-05-06 08:07 | 23.78721 | 121.84467 | 26639 ft | 490 kts | 200° |
| 2026-05-06 08:07 | 23.75454 | 121.83406 | 26948 ft | 493 kts | 200° |
| 2026-05-06 08:08 | 23.72167 | 121.82340 | 27252 ft | 494 kts | 200° |
| 2026-05-06 08:08 | 23.68861 | 121.81266 | 27553 ft | 496 kts | 200° |
| 2026-05-06 08:08 | 23.65518 | 121.80183 | 27869 ft | 498 kts | 200° |
| 2026-05-06 08:08 | 23.62210 | 121.79112 | 28256 ft | 498 kts | 200° |
| 2026-05-06 08:09 | 23.58873 | 121.78040 | 28730 ft | 496 kts | 200° |
| 2026-05-06 08:09 | 23.55591 | 121.76989 | 29193 ft | 494 kts | 200° |
| 2026-05-06 08:09 | 23.52285 | 121.75922 | 29652 ft | 492 kts | 200° |
| 2026-05-06 08:09 | 23.49004 | 121.74859 | 30110 ft | 490 kts | 201° |
| 2026-05-06 08:10 | 23.45727 | 121.73797 | 30572 ft | 488 kts | 201° |
| 2026-05-06 08:10 | 23.42507 | 121.72753 | 31017 ft | 486 kts | 201° |
| 2026-05-06 08:10 | 23.39249 | 121.71701 | 31449 ft | 484 kts | 201° |
| 2026-05-06 08:10 | 23.36026 | 121.70664 | 31888 ft | 482 kts | 201° |
| 2026-05-06 08:11 | 23.32804 | 121.69627 | 32331 ft | 480 kts | 201° |
| 2026-05-06 08:11 | 23.29632 | 121.68607 | 32735 ft | 478 kts | 201° |
| 2026-05-06 08:11 | 23.26441 | 121.67580 | 33127 ft | 477 kts | 201° |
| 2026-05-06 08:11 | 23.23257 | 121.66556 | 33527 ft | 475 kts | 201° |
| 2026-05-06 08:12 | 23.20121 | 121.65546 | 33908 ft | 473 kts | 202° |
| 2026-05-06 08:12 | 23.16930 | 121.64519 | 34271 ft | 472 kts | 202° |
| 2026-05-06 08:12 | 23.13814 | 121.63515 | 34577 ft | 472 kts | 202° |
| 2026-05-06 08:12 | 23.10643 | 121.62495 | 34847 ft | 472 kts | 202° |
| 2026-05-06 08:13 | 23.07482 | 121.61478 | 35081 ft | 473 kts | 202° |
| 2026-05-06 08:13 | 23.04308 | 121.60460 | 35293 ft | 475 kts | 202° |
| 2026-05-06 08:13 | 23.01165 | 121.59450 | 35510 ft | 476 kts | 202° |
| 2026-05-06 08:13 | 22.97969 | 121.58427 | 35752 ft | 476 kts | 202° |
| 2026-05-06 08:14 | 22.94794 | 121.57412 | 35944 ft | 477 kts | 202° |
| 2026-05-06 08:14 | 22.91606 | 121.56394 | 35957 ft | 479 kts | 202° |
| 2026-05-06 08:14 | 22.85202 | 121.54349 | 35963 ft | 478 kts | 202° |
| 2026-05-06 08:15 | 22.78812 | 121.52309 | 35968 ft | 477 kts | 202° |
| 2026-05-06 08:15 | 22.72433 | 121.50273 | 35967 ft | 478 kts | 202° |
| 2026-05-06 08:16 | 22.66105 | 121.48096 | 35972 ft | 475 kts | 206° |
| 2026-05-06 08:16 | 22.59966 | 121.45439 | 35968 ft | 475 kts | 208° |
| 2026-05-06 08:17 | 22.53877 | 121.42756 | 35962 ft | 474 kts | 208° |
| 2026-05-06 08:17 | 22.47774 | 121.40071 | 35956 ft | 474 kts | 208° |
| 2026-05-06 08:18 | 22.41633 | 121.37376 | 35952 ft | 474 kts | 207° |
| 2026-05-06 08:18 | 22.35544 | 121.34705 | 35945 ft | 473 kts | 207° |
| 2026-05-06 08:19 | 22.29416 | 121.32018 | 35942 ft | 474 kts | 207° |
| 2026-05-06 08:19 | 22.23318 | 121.29347 | 35935 ft | 475 kts | 207° |
| 2026-05-06 08:20 | 22.17184 | 121.26664 | 35930 ft | 474 kts | 207° |
| 2026-05-06 08:20 | 22.11083 | 121.23996 | 35927 ft | 474 kts | 207° |
| 2026-05-06 08:21 | 22.04965 | 121.21323 | 35926 ft | 473 kts | 207° |
| 2026-05-06 08:21 | 21.98872 | 121.18665 | 35918 ft | 474 kts | 207° |
| 2026-05-06 08:22 | 21.92749 | 121.16003 | 35915 ft | 474 kts | 207° |
| 2026-05-06 08:22 | 21.86607 | 121.13332 | 35921 ft | 475 kts | 207° |
| 2026-05-06 08:23 | 21.80484 | 121.10667 | 35928 ft | 474 kts | 207° |
| 2026-05-06 08:23 | 21.74392 | 121.08019 | 35928 ft | 474 kts | 207° |
| 2026-05-06 08:24 | 21.68260 | 121.05357 | 35925 ft | 474 kts | 207° |
| 2026-05-06 08:24 | 21.62162 | 121.02712 | 35926 ft | 474 kts | 207° |
| 2026-05-06 08:25 | 21.56035 | 121.00053 | 35919 ft | 474 kts | 207° |
| 2026-05-06 08:25 | 21.49896 | 120.97393 | 35921 ft | 474 kts | 207° |
| 2026-05-06 08:26 | 21.43789 | 120.94750 | 35920 ft | 474 kts | 207° |
| 2026-05-06 08:26 | 21.37657 | 120.92097 | 35925 ft | 473 kts | 206° |
| 2026-05-06 08:27 | 21.31566 | 120.89465 | 35919 ft | 473 kts | 206° |
| 2026-05-06 08:27 | 21.25423 | 120.86813 | 35922 ft | 474 kts | 206° |
| 2026-05-06 08:28 | 21.19332 | 120.84186 | 35923 ft | 474 kts | 206° |
| 2026-05-06 08:28 | 21.13191 | 120.81537 | 35915 ft | 474 kts | 206° |
| 2026-05-06 08:29 | 21.07064 | 120.78928 | 35915 ft | 475 kts | 204° |
| 2026-05-06 08:29 | 21.00719 | 120.76826 | 35918 ft | 479 kts | 198° |
| 2026-05-06 08:30 | 20.94122 | 120.75462 | 35917 ft | 482 kts | 192° |
| 2026-05-06 08:30 | 20.87430 | 120.74794 | 35913 ft | 484 kts | 188° |
| 2026-05-06 08:31 | 20.80681 | 120.74248 | 35911 ft | 484 kts | 188° |
| 2026-05-06 08:31 | 20.73972 | 120.73700 | 35910 ft | 484 kts | 188° |
| 2026-05-06 08:32 | 20.67215 | 120.73144 | 35911 ft | 485 kts | 188° |
| 2026-05-06 08:32 | 20.60478 | 120.72591 | 35908 ft | 485 kts | 188° |
| 2026-05-06 08:33 | 20.53756 | 120.72039 | 35907 ft | 484 kts | 188° |
| 2026-05-06 08:33 | 20.47043 | 120.71487 | 35908 ft | 484 kts | 188° |
| 2026-05-06 08:34 | 20.36976 | 120.70660 | 35906 ft | 484 kts | 188° |
| 2026-05-06 08:35 | 20.30220 | 120.70104 | 35901 ft | 484 kts | 188° |
| 2026-05-06 08:35 | 20.23510 | 120.69555 | 35901 ft | 484 kts | 188° |
| 2026-05-06 08:36 | 20.16771 | 120.69003 | 35900 ft | 484 kts | 188° |
| 2026-05-06 08:36 | 20.10078 | 120.68457 | 35899 ft | 483 kts | 188° |
| 2026-05-06 08:37 | 20.03358 | 120.67906 | 35897 ft | 483 kts | 188° |
| 2026-05-06 08:37 | 19.96662 | 120.67359 | 35895 ft | 484 kts | 188° |
| 2026-05-06 08:38 | 19.89939 | 120.66811 | 35896 ft | 483 kts | 188° |
| 2026-05-06 08:38 | 19.83207 | 120.66263 | 35892 ft | 483 kts | 188° |
| 2026-05-06 08:39 | 19.76512 | 120.65716 | 35893 ft | 482 kts | 188° |
| 2026-05-06 08:39 | 19.69824 | 120.65171 | 35892 ft | 482 kts | 188° |
| 2026-05-06 08:40 | 19.63131 | 120.64626 | 35889 ft | 482 kts | 188° |
| 2026-05-06 08:40 | 19.56400 | 120.64078 | 35888 ft | 482 kts | 188° |
| 2026-05-06 08:41 | 19.49717 | 120.63535 | 35886 ft | 481 kts | 188° |
| 2026-05-06 08:41 | 19.43043 | 120.62993 | 35886 ft | 481 kts | 188° |
| 2026-05-06 08:42 | 19.36357 | 120.62452 | 35885 ft | 481 kts | 188° |
| 2026-05-06 08:42 | 19.29694 | 120.61912 | 35881 ft | 480 kts | 187° |
| 2026-05-06 08:43 | 19.23006 | 120.61371 | 35881 ft | 481 kts | 187° |
| 2026-05-06 08:43 | 19.16311 | 120.60828 | 35878 ft | 480 kts | 187° |
| 2026-05-06 08:44 | 19.09637 | 120.60288 | 35874 ft | 480 kts | 187° |
| 2026-05-06 08:44 | 19.03008 | 120.59755 | 35876 ft | 479 kts | 187° |
| 2026-05-06 08:45 | 18.96355 | 120.59221 | 35876 ft | 479 kts | 187° |
| 2026-05-06 08:45 | 18.89675 | 120.58683 | 35874 ft | 479 kts | 187° |
| 2026-05-06 08:46 | 18.83031 | 120.58146 | 35878 ft | 479 kts | 187° |
| 2026-05-06 08:46 | 18.76346 | 120.57607 | 35877 ft | 480 kts | 187° |
| 2026-05-06 08:47 | 18.69710 | 120.57073 | 35877 ft | 480 kts | 187° |
| 2026-05-06 08:47 | 18.63018 | 120.56537 | 35882 ft | 480 kts | 187° |
| 2026-05-06 08:48 | 18.56372 | 120.56004 | 35885 ft | 479 kts | 187° |
| 2026-05-06 08:48 | 18.49695 | 120.55468 | 35890 ft | 479 kts | 187° |
| 2026-05-06 08:49 | 18.43050 | 120.54936 | 35890 ft | 479 kts | 187° |
| 2026-05-06 08:49 | 18.36367 | 120.54399 | 35885 ft | 480 kts | 187° |
| 2026-05-06 08:50 | 18.29716 | 120.53867 | 35886 ft | 480 kts | 187° |
| 2026-05-06 08:50 | 18.23069 | 120.53333 | 35898 ft | 480 kts | 187° |
| 2026-05-06 08:51 | 18.16383 | 120.52744 | 35896 ft | 478 kts | 189° |
| 2026-05-06 08:51 | 18.09790 | 120.51966 | 35897 ft | 478 kts | 189° |
| 2026-05-06 08:52 | 18.03167 | 120.51176 | 35896 ft | 478 kts | 189° |
| 2026-05-06 08:52 | 17.96518 | 120.50388 | 35900 ft | 479 kts | 189° |
| 2026-05-06 08:53 | 17.89915 | 120.49606 | 35910 ft | 479 kts | 189° |
| 2026-05-06 08:53 | 17.83262 | 120.48819 | 35912 ft | 479 kts | 189° |
| 2026-05-06 08:54 | 17.76623 | 120.48032 | 35918 ft | 478 kts | 188° |
| 2026-05-06 08:54 | 17.70002 | 120.47249 | 35932 ft | 478 kts | 188° |
| 2026-05-06 08:55 | 17.63415 | 120.46472 | 35936 ft | 478 kts | 188° |
| 2026-05-06 08:55 | 17.56756 | 120.45688 | 35932 ft | 478 kts | 188° |
| 2026-05-06 08:56 | 17.50120 | 120.44907 | 35940 ft | 479 kts | 188° |
| 2026-05-06 08:56 | 17.43527 | 120.44128 | 35943 ft | 479 kts | 188° |
| 2026-05-06 08:57 | 17.36884 | 120.43344 | 35925 ft | 479 kts | 188° |
| 2026-05-06 08:57 | 17.30240 | 120.42561 | 35924 ft | 478 kts | 188° |
| 2026-05-06 08:58 | 17.23641 | 120.41784 | 35923 ft | 478 kts | 188° |
| 2026-05-06 08:58 | 17.16991 | 120.41007 | 36061 ft | 481 kts | 188° |
| 2026-05-06 08:58 | 17.13650 | 120.40616 | 36373 ft | 479 kts | 188° |
| 2026-05-06 08:59 | 17.10350 | 120.40228 | 36706 ft | 478 kts | 188° |
| 2026-05-06 08:59 | 17.07062 | 120.39843 | 36994 ft | 477 kts | 188° |
| 2026-05-06 08:59 | 17.03754 | 120.39455 | 37233 ft | 477 kts | 188° |
| 2026-05-06 08:59 | 17.00438 | 120.39066 | 37456 ft | 477 kts | 188° |
| 2026-05-06 09:00 | 16.97117 | 120.38676 | 37681 ft | 477 kts | 188° |
| 2026-05-06 09:00 | 16.93844 | 120.38291 | 37890 ft | 477 kts | 188° |
| 2026-05-06 09:00 | 16.90533 | 120.37903 | 37925 ft | 477 kts | 188° |
| 2026-05-06 09:01 | 16.83926 | 120.37126 | 37946 ft | 475 kts | 188° |
| 2026-05-06 09:01 | 16.77372 | 120.36357 | 37934 ft | 475 kts | 188° |
| 2026-05-06 09:02 | 16.70777 | 120.35681 | 37931 ft | 476 kts | 185° |
| 2026-05-06 09:02 | 16.64169 | 120.35229 | 37924 ft | 476 kts | 185° |
| 2026-05-06 09:03 | 16.57529 | 120.34781 | 37935 ft | 475 kts | 185° |
| 2026-05-06 09:03 | 16.50921 | 120.34330 | 37937 ft | 474 kts | 185° |
| 2026-05-06 09:04 | 16.44339 | 120.33880 | 37933 ft | 474 kts | 185° |
| 2026-05-06 09:04 | 16.37731 | 120.33429 | 37915 ft | 474 kts | 185° |
| 2026-05-06 09:05 | 16.31113 | 120.32976 | 37908 ft | 474 kts | 185° |
| 2026-05-06 09:05 | 16.24522 | 120.32527 | 37894 ft | 474 kts | 185° |
| 2026-05-06 09:06 | 16.17958 | 120.32079 | 37887 ft | 474 kts | 185° |
| 2026-05-06 09:06 | 16.11354 | 120.31628 | 37879 ft | 474 kts | 185° |
| 2026-05-06 09:07 | 16.04765 | 120.31180 | 37873 ft | 474 kts | 185° |
| 2026-05-06 09:07 | 15.98218 | 120.30733 | 37873 ft | 473 kts | 184° |
| 2026-05-06 09:08 | 15.91597 | 120.30283 | 37873 ft | 475 kts | 184° |
| 2026-05-06 09:08 | 15.84966 | 120.29831 | 37874 ft | 475 kts | 184° |
| 2026-05-06 09:09 | 15.78381 | 120.29383 | 37874 ft | 474 kts | 184° |
| 2026-05-06 09:09 | 15.71772 | 120.28933 | 37878 ft | 474 kts | 184° |
| 2026-05-06 09:10 | 15.65191 | 120.28487 | 37889 ft | 473 kts | 184° |
| 2026-05-06 09:10 | 15.58634 | 120.28046 | 37905 ft | 473 kts | 185° |
| 2026-05-06 09:11 | 15.52041 | 120.27600 | 37921 ft | 473 kts | 185° |
| 2026-05-06 09:11 | 15.45489 | 120.27157 | 37926 ft | 473 kts | 185° |
| 2026-05-06 09:12 | 15.38890 | 120.26708 | 37913 ft | 472 kts | 185° |
| 2026-05-06 09:12 | 15.32312 | 120.26262 | 37895 ft | 472 kts | 184° |
| 2026-05-06 09:13 | 15.25769 | 120.25819 | 37884 ft | 472 kts | 185° |
| 2026-05-06 09:13 | 15.19227 | 120.25375 | 37877 ft | 472 kts | 185° |
| 2026-05-06 09:14 | 15.12633 | 120.24931 | 37872 ft | 472 kts | 185° |
| 2026-05-06 09:14 | 15.06076 | 120.24490 | 37868 ft | 472 kts | 185° |
| 2026-05-06 09:15 | 14.99503 | 120.24046 | 37867 ft | 471 kts | 185° |
| 2026-05-06 09:15 | 14.92984 | 120.23608 | 37865 ft | 470 kts | 185° |
| 2026-05-06 09:16 | 14.86434 | 120.23163 | 37862 ft | 470 kts | 185° |
| 2026-05-06 09:16 | 14.79900 | 120.22723 | 37858 ft | 470 kts | 185° |
| 2026-05-06 09:17 | 14.73395 | 120.22074 | 37857 ft | 469 kts | 188° |
| 2026-05-06 09:17 | 14.66875 | 120.21234 | 37853 ft | 469 kts | 188° |
| 2026-05-06 09:18 | 14.60410 | 120.20396 | 37853 ft | 470 kts | 188° |
| 2026-05-06 09:18 | 14.53891 | 120.19553 | 37850 ft | 470 kts | 188° |
| 2026-05-06 09:19 | 14.47415 | 120.18715 | 37850 ft | 469 kts | 188° |
| 2026-05-06 09:19 | 14.40929 | 120.17878 | 37848 ft | 468 kts | 188° |
| 2026-05-06 09:20 | 14.34447 | 120.17042 | 37852 ft | 468 kts | 188° |
| 2026-05-06 09:20 | 14.27965 | 120.16205 | 37856 ft | 468 kts | 188° |
| 2026-05-06 09:21 | 14.21503 | 120.15371 | 37857 ft | 468 kts | 188° |
| 2026-05-06 09:21 | 14.15027 | 120.14535 | 37857 ft | 467 kts | 188° |
| 2026-05-06 09:22 | 14.08555 | 120.13702 | 37858 ft | 467 kts | 189° |
| 2026-05-06 09:22 | 14.02115 | 120.12873 | 37858 ft | 467 kts | 188° |
| 2026-05-06 09:23 | 13.95671 | 120.12052 | 37861 ft | 466 kts | 187° |
| 2026-05-06 09:23 | 13.89152 | 120.12050 | 37868 ft | 469 kts | 175° |
| 2026-05-06 09:24 | 13.82758 | 120.13428 | 37873 ft | 472 kts | 163° |
| 2026-05-06 09:24 | 13.76689 | 120.16174 | 37881 ft | 475 kts | 151° |
| 2026-05-06 09:25 | 13.71050 | 120.19695 | 37878 ft | 475 kts | 149° |
| 2026-05-06 09:25 | 13.65406 | 120.23288 | 37878 ft | 475 kts | 149° |
| 2026-05-06 09:26 | 13.59787 | 120.26841 | 37870 ft | 476 kts | 150° |
| 2026-05-06 09:26 | 13.54118 | 120.30411 | 37870 ft | 476 kts | 150° |
| 2026-05-06 09:27 | 13.48478 | 120.33960 | 37868 ft | 476 kts | 150° |
| 2026-05-06 09:27 | 13.42804 | 120.37527 | 37871 ft | 476 kts | 150° |
| 2026-05-06 09:28 | 13.36869 | 120.40427 | 37869 ft | 472 kts | 165° |
| 2026-05-06 09:28 | 13.30433 | 120.41468 | 37863 ft | 467 kts | 181° |
| 2026-05-06 09:29 | 13.24000 | 120.40615 | 37865 ft | 464 kts | 197° |
| 2026-05-06 09:29 | 13.18041 | 120.38149 | 37861 ft | 463 kts | 206° |
| 2026-05-06 09:30 | 13.12184 | 120.35319 | 37854 ft | 463 kts | 206° |
| 2026-05-06 09:30 | 13.06345 | 120.32498 | 37856 ft | 463 kts | 206° |
| 2026-05-06 09:31 | 13.00530 | 120.29703 | 37853 ft | 463 kts | 206° |
| 2026-05-06 09:31 | 12.94673 | 120.26893 | 37841 ft | 463 kts | 206° |
| 2026-05-06 09:32 | 12.88846 | 120.24102 | 37836 ft | 463 kts | 206° |
| 2026-05-06 09:32 | 12.82992 | 120.21301 | 37845 ft | 464 kts | 206° |
| 2026-05-06 09:33 | 12.77131 | 120.18499 | 37843 ft | 465 kts | 206° |
| 2026-05-06 09:33 | 12.71248 | 120.15688 | 37841 ft | 466 kts | 206° |
| 2026-05-06 09:34 | 12.65370 | 120.12878 | 37844 ft | 466 kts | 206° |
| 2026-05-06 09:34 | 12.59501 | 120.10072 | 37847 ft | 466 kts | 206° |
| 2026-05-06 09:35 | 12.53619 | 120.07264 | 37847 ft | 466 kts | 206° |
| 2026-05-06 09:35 | 12.47721 | 120.04449 | 37847 ft | 466 kts | 206° |
| 2026-05-06 09:36 | 12.41860 | 120.01655 | 37854 ft | 465 kts | 206° |
| 2026-05-06 09:36 | 12.35981 | 119.98852 | 37860 ft | 465 kts | 206° |
| 2026-05-06 09:37 | 12.30094 | 119.96047 | 37862 ft | 467 kts | 206° |
| 2026-05-06 09:37 | 12.24190 | 119.93236 | 37864 ft | 467 kts | 206° |
| 2026-05-06 09:38 | 12.18312 | 119.90437 | 37862 ft | 468 kts | 206° |
| 2026-05-06 09:38 | 12.12395 | 119.87620 | 37860 ft | 468 kts | 206° |
| 2026-05-06 09:39 | 12.06502 | 119.84819 | 37859 ft | 467 kts | 206° |
| 2026-05-06 09:39 | 12.00576 | 119.82001 | 37855 ft | 467 kts | 206° |
| 2026-05-06 09:40 | 11.94675 | 119.79200 | 37847 ft | 467 kts | 206° |
| 2026-05-06 09:40 | 11.85827 | 119.74996 | 37837 ft | 468 kts | 206° |
| 2026-05-06 09:41 | 11.79930 | 119.72193 | 37836 ft | 468 kts | 206° |
| 2026-05-06 09:41 | 11.74027 | 119.69389 | 37835 ft | 468 kts | 206° |
| 2026-05-06 09:42 | 11.68083 | 119.66582 | 37835 ft | 469 kts | 205° |
| 2026-05-06 09:42 | 11.62127 | 119.63825 | 37835 ft | 468 kts | 205° |
| 2026-05-06 09:43 | 11.56180 | 119.61073 | 37835 ft | 468 kts | 205° |
| 2026-05-06 09:43 | 11.50276 | 119.58337 | 37834 ft | 468 kts | 205° |
| 2026-05-06 09:44 | 11.44335 | 119.55584 | 37835 ft | 468 kts | 205° |
| 2026-05-06 09:44 | 11.38380 | 119.52824 | 37838 ft | 468 kts | 205° |
| 2026-05-06 09:45 | 11.32460 | 119.50081 | 37845 ft | 468 kts | 205° |
| 2026-05-06 09:45 | 11.26504 | 119.47322 | 37850 ft | 468 kts | 205° |
| 2026-05-06 09:46 | 11.20559 | 119.44572 | 37850 ft | 469 kts | 205° |
| 2026-05-06 09:46 | 11.14627 | 119.41828 | 37846 ft | 469 kts | 205° |
| 2026-05-06 09:47 | 11.08686 | 119.39081 | 37842 ft | 469 kts | 205° |
| 2026-05-06 09:47 | 11.02724 | 119.36323 | 37840 ft | 469 kts | 205° |
| 2026-05-06 09:48 | 10.96772 | 119.33572 | 37837 ft | 469 kts | 205° |
| 2026-05-06 09:48 | 10.90814 | 119.30822 | 37837 ft | 469 kts | 205° |
| 2026-05-06 09:49 | 10.84849 | 119.28068 | 37839 ft | 470 kts | 205° |
| 2026-05-06 09:49 | 10.78880 | 119.25311 | 37839 ft | 470 kts | 205° |
| 2026-05-06 09:50 | 10.72919 | 119.22561 | 37841 ft | 470 kts | 205° |
| 2026-05-06 09:50 | 10.66977 | 119.19820 | 37842 ft | 470 kts | 205° |
| 2026-05-06 09:51 | 10.60995 | 119.17064 | 37844 ft | 470 kts | 205° |
| 2026-05-06 09:51 | 10.55010 | 119.14302 | 37848 ft | 471 kts | 205° |
| 2026-05-06 09:52 | 10.49057 | 119.11558 | 37846 ft | 471 kts | 205° |
| 2026-05-06 09:52 | 10.43070 | 119.08798 | 37851 ft | 470 kts | 205° |
| 2026-05-06 09:53 | 10.37088 | 119.06042 | 37853 ft | 470 kts | 205° |
| 2026-05-06 09:53 | 10.31055 | 119.03271 | 37857 ft | 471 kts | 205° |
| 2026-05-06 09:54 | 10.25062 | 119.00522 | 37865 ft | 472 kts | 205° |
| 2026-05-06 09:54 | 10.19061 | 118.97768 | 37860 ft | 473 kts | 205° |
| 2026-05-06 09:55 | 10.13049 | 118.95007 | 37858 ft | 472 kts | 205° |
| 2026-05-06 09:55 | 10.07043 | 118.92248 | 37859 ft | 472 kts | 205° |
| 2026-05-06 09:56 | 10.01048 | 118.89494 | 37859 ft | 472 kts | 205° |
| 2026-05-06 09:56 | 9.95040 | 118.86736 | 37856 ft | 472 kts | 205° |
| 2026-05-06 09:57 | 9.89053 | 118.83987 | 37860 ft | 471 kts | 205° |
| 2026-05-06 09:57 | 9.83053 | 118.81234 | 37859 ft | 472 kts | 205° |
| 2026-05-06 09:58 | 9.77062 | 118.78423 | 37859 ft | 473 kts | 207° |
| 2026-05-06 09:58 | 9.71327 | 118.75098 | 37855 ft | 474 kts | 213° |
| 2026-05-06 09:59 | 9.65920 | 118.71262 | 37850 ft | 474 kts | 216° |
| 2026-05-06 09:59 | 9.60558 | 118.67347 | 37847 ft | 473 kts | 216° |
| 2026-05-06 10:00 | 9.55240 | 118.63471 | 37850 ft | 473 kts | 216° |
| 2026-05-06 10:00 | 9.49868 | 118.59559 | 37851 ft | 475 kts | 216° |
| 2026-05-06 10:01 | 9.44472 | 118.55637 | 37854 ft | 475 kts | 216° |
| 2026-05-06 10:01 | 9.39121 | 118.51748 | 37856 ft | 476 kts | 216° |
| 2026-05-06 10:02 | 9.33731 | 118.47831 | 37855 ft | 476 kts | 216° |
| 2026-05-06 10:02 | 9.28350 | 118.43924 | 37865 ft | 476 kts | 216° |
| 2026-05-06 10:03 | 9.22949 | 118.40004 | 37879 ft | 476 kts | 216° |
| 2026-05-06 10:03 | 9.17578 | 118.36105 | 37884 ft | 475 kts | 216° |
| 2026-05-06 10:04 | 9.12237 | 118.32226 | 37888 ft | 473 kts | 216° |
| 2026-05-06 10:04 | 9.06872 | 118.28335 | 37879 ft | 474 kts | 215° |
| 2026-05-06 10:05 | 9.01486 | 118.24461 | 37870 ft | 475 kts | 215° |
| 2026-05-06 10:05 | 8.96085 | 118.20578 | 37859 ft | 475 kts | 215° |
| 2026-05-06 10:06 | 8.90694 | 118.16699 | 37858 ft | 475 kts | 215° |
| 2026-05-06 10:06 | 8.85303 | 118.12818 | 37854 ft | 474 kts | 215° |
| 2026-05-06 10:07 | 8.79946 | 118.08962 | 37855 ft | 473 kts | 215° |
| 2026-05-06 10:07 | 8.74587 | 118.05106 | 37854 ft | 474 kts | 215° |
| 2026-05-06 10:08 | 8.69187 | 118.01221 | 37853 ft | 475 kts | 215° |
| 2026-05-06 10:08 | 8.63818 | 117.97360 | 37849 ft | 475 kts | 215° |
| 2026-05-06 10:09 | 8.58421 | 117.93480 | 37840 ft | 475 kts | 215° |
| 2026-05-06 10:09 | 8.53026 | 117.89605 | 37837 ft | 475 kts | 215° |
| 2026-05-06 10:10 | 8.47628 | 117.85729 | 37832 ft | 475 kts | 215° |
| 2026-05-06 10:10 | 8.42266 | 117.81876 | 37835 ft | 475 kts | 215° |
| 2026-05-06 10:11 | 8.36875 | 117.78007 | 37837 ft | 474 kts | 215° |
| 2026-05-06 10:11 | 8.31486 | 117.74142 | 37836 ft | 474 kts | 215° |
| 2026-05-06 10:12 | 8.26101 | 117.70280 | 37838 ft | 475 kts | 215° |
| 2026-05-06 10:12 | 8.20712 | 117.66415 | 37837 ft | 474 kts | 215° |
| 2026-05-06 10:13 | 8.15339 | 117.62563 | 37837 ft | 473 kts | 215° |
| 2026-05-06 10:13 | 8.09988 | 117.58728 | 37837 ft | 473 kts | 215° |
| 2026-05-06 10:14 | 8.04603 | 117.54870 | 37838 ft | 474 kts | 215° |
| 2026-05-06 10:14 | 7.99194 | 117.50996 | 37834 ft | 475 kts | 215° |
| 2026-05-06 10:15 | 7.93832 | 117.47156 | 37835 ft | 475 kts | 215° |
| 2026-05-06 10:15 | 7.88432 | 117.43290 | 37837 ft | 474 kts | 215° |
| 2026-05-06 10:16 | 7.83043 | 117.39431 | 37835 ft | 473 kts | 215° |
| 2026-05-06 10:16 | 7.77690 | 117.35598 | 37834 ft | 473 kts | 214° |
| 2026-05-06 10:17 | 7.72303 | 117.31742 | 37837 ft | 474 kts | 214° |
| 2026-05-06 10:17 | 7.66910 | 117.27899 | 37836 ft | 474 kts | 214° |
| 2026-05-06 10:18 | 7.61485 | 117.24077 | 37835 ft | 474 kts | 214° |
| 2026-05-06 10:18 | 7.56102 | 117.20280 | 37835 ft | 475 kts | 214° |
| 2026-05-06 10:19 | 7.50664 | 117.16442 | 37837 ft | 475 kts | 214° |
| 2026-05-06 10:19 | 7.45234 | 117.12607 | 37837 ft | 475 kts | 214° |
| 2026-05-06 10:20 | 7.39843 | 117.08800 | 37838 ft | 475 kts | 214° |
| 2026-05-06 10:20 | 7.34411 | 117.04966 | 37838 ft | 476 kts | 214° |
| 2026-05-06 10:21 | 7.29008 | 117.01154 | 37837 ft | 476 kts | 214° |
| 2026-05-06 10:21 | 7.23548 | 116.97303 | 37837 ft | 476 kts | 214° |
| 2026-05-06 10:22 | 7.18137 | 116.93488 | 37837 ft | 475 kts | 214° |
| 2026-05-06 10:22 | 7.12697 | 116.89649 | 37835 ft | 476 kts | 214° |
| 2026-05-06 10:23 | 7.07289 | 116.85834 | 37836 ft | 475 kts | 214° |
| 2026-05-06 10:23 | 7.01887 | 116.82026 | 37830 ft | 476 kts | 214° |
| 2026-05-06 10:24 | 6.96447 | 116.78195 | 37825 ft | 476 kts | 214° |
| 2026-05-06 10:24 | 6.91003 | 116.74363 | 37826 ft | 476 kts | 214° |
| 2026-05-06 10:25 | 6.85595 | 116.70554 | 37826 ft | 475 kts | 214° |
| 2026-05-06 10:25 | 6.80169 | 116.66733 | 37828 ft | 475 kts | 214° |
| 2026-05-06 10:26 | 6.74733 | 116.62905 | 37828 ft | 475 kts | 214° |
| 2026-05-06 10:26 | 6.69325 | 116.59097 | 37828 ft | 475 kts | 214° |
| 2026-05-06 10:27 | 6.63932 | 116.55298 | 37827 ft | 475 kts | 214° |
| 2026-05-06 10:27 | 6.58516 | 116.51488 | 37831 ft | 475 kts | 214° |
| 2026-05-06 10:28 | 6.53088 | 116.47682 | 37831 ft | 474 kts | 214° |
| 2026-05-06 10:28 | 6.47662 | 116.43875 | 37835 ft | 475 kts | 214° |
| 2026-05-06 10:29 | 6.42230 | 116.40071 | 37847 ft | 475 kts | 214° |
| 2026-05-06 10:29 | 6.36826 | 116.36292 | 37860 ft | 474 kts | 214° |
| 2026-05-06 10:30 | 6.31388 | 116.32484 | 37865 ft | 474 kts | 214° |
| 2026-05-06 10:30 | 6.25990 | 116.28703 | 37863 ft | 474 kts | 214° |
| 2026-05-06 10:31 | 6.20573 | 116.24909 | 37855 ft | 473 kts | 214° |
| 2026-05-06 10:31 | 6.15185 | 116.21135 | 37853 ft | 474 kts | 214° |
| 2026-05-06 10:32 | 6.09759 | 116.17336 | 37854 ft | 474 kts | 214° |
| 2026-05-06 10:32 | 6.04366 | 116.13556 | 37850 ft | 474 kts | 214° |
| 2026-05-06 10:33 | 5.98933 | 116.09748 | 37842 ft | 474 kts | 214° |
| 2026-05-06 10:33 | 5.93543 | 116.05975 | 37839 ft | 473 kts | 214° |
| 2026-05-06 10:34 | 5.88167 | 116.02087 | 37842 ft | 473 kts | 217° |
| 2026-05-06 10:34 | 5.82978 | 115.98055 | 37837 ft | 474 kts | 217° |
| 2026-05-06 10:35 | 5.77751 | 115.93975 | 37839 ft | 475 kts | 217° |
| 2026-05-06 10:35 | 5.72525 | 115.89897 | 37846 ft | 475 kts | 217° |
| 2026-05-06 10:36 | 5.67328 | 115.85844 | 37859 ft | 475 kts | 217° |
| 2026-05-06 10:36 | 5.62094 | 115.81762 | 37861 ft | 475 kts | 217° |
| 2026-05-06 10:37 | 5.56857 | 115.77679 | 37855 ft | 475 kts | 217° |
| 2026-05-06 10:37 | 5.51647 | 115.73618 | 37838 ft | 475 kts | 217° |
| 2026-05-06 10:38 | 5.46409 | 115.69535 | 37836 ft | 475 kts | 217° |
| 2026-05-06 10:38 | 5.41193 | 115.65467 | 37847 ft | 476 kts | 217° |
| 2026-05-06 10:39 | 5.35968 | 115.61393 | 37847 ft | 477 kts | 217° |
| 2026-05-06 10:39 | 5.30741 | 115.57269 | 37844 ft | 477 kts | 217° |
| 2026-05-06 10:40 | 5.25542 | 115.53149 | 37842 ft | 477 kts | 217° |
| 2026-05-06 10:40 | 5.20311 | 115.49004 | 37836 ft | 477 kts | 217° |
| 2026-05-06 10:41 | 5.15092 | 115.44870 | 37834 ft | 477 kts | 217° |
| 2026-05-06 10:41 | 5.09880 | 115.40743 | 37834 ft | 478 kts | 217° |
| 2026-05-06 10:42 | 5.04654 | 115.36606 | 37835 ft | 479 kts | 217° |
| 2026-05-06 10:42 | 4.99433 | 115.32474 | 37831 ft | 479 kts | 217° |
| 2026-05-06 10:43 | 4.94184 | 115.28319 | 37834 ft | 479 kts | 217° |
| 2026-05-06 10:44 | 4.86347 | 115.22114 | 37848 ft | 479 kts | 217° |
| 2026-05-06 10:44 | 4.81155 | 115.17960 | 37853 ft | 479 kts | 218° |
| 2026-05-06 10:45 | 4.75951 | 115.13741 | 37852 ft | 478 kts | 218° |
| 2026-05-06 10:45 | 4.70797 | 115.09563 | 37858 ft | 478 kts | 218° |
| 2026-05-06 10:46 | 4.65600 | 115.05353 | 37864 ft | 479 kts | 218° |
| 2026-05-06 10:46 | 4.60422 | 115.01160 | 37880 ft | 479 kts | 218° |
| 2026-05-06 10:47 | 4.55231 | 114.96956 | 37890 ft | 479 kts | 218° |
| 2026-05-06 10:47 | 4.50064 | 114.92768 | 37902 ft | 479 kts | 218° |
| 2026-05-06 10:48 | 4.44865 | 114.88558 | 37901 ft | 479 kts | 218° |
| 2026-05-06 10:48 | 4.39611 | 114.84473 | 37889 ft | 479 kts | 216° |
| 2026-05-06 10:49 | 4.34257 | 114.80485 | 37888 ft | 479 kts | 216° |
| 2026-05-06 10:49 | 4.28920 | 114.76488 | 37881 ft | 479 kts | 216° |
| 2026-05-06 10:50 | 4.23563 | 114.72458 | 37879 ft | 479 kts | 216° |
| 2026-05-06 10:50 | 4.18232 | 114.68443 | 37880 ft | 479 kts | 216° |
| 2026-05-06 10:51 | 4.12892 | 114.64423 | 37877 ft | 479 kts | 216° |
| 2026-05-06 10:51 | 4.07569 | 114.60416 | 37866 ft | 478 kts | 216° |
| 2026-05-06 10:52 | 4.02268 | 114.56423 | 37871 ft | 479 kts | 216° |
| 2026-05-06 10:52 | 3.96936 | 114.52404 | 37868 ft | 479 kts | 216° |
| 2026-05-06 10:53 | 3.91607 | 114.48373 | 37874 ft | 479 kts | 216° |
| 2026-05-06 10:53 | 3.86365 | 114.44244 | 37883 ft | 479 kts | 217° |
| 2026-05-06 10:54 | 3.81156 | 114.40112 | 37887 ft | 479 kts | 217° |
| 2026-05-06 10:54 | 3.75908 | 114.35956 | 37887 ft | 478 kts | 217° |
| 2026-05-06 10:55 | 3.70676 | 114.31819 | 37886 ft | 478 kts | 217° |
| 2026-05-06 10:55 | 3.65452 | 114.27690 | 37881 ft | 479 kts | 217° |
| 2026-05-06 10:56 | 3.60243 | 114.23575 | 37879 ft | 479 kts | 217° |
| 2026-05-06 10:56 | 3.55000 | 114.19433 | 37875 ft | 479 kts | 217° |
| 2026-05-06 10:57 | 3.49755 | 114.15288 | 37873 ft | 479 kts | 217° |
| 2026-05-06 10:57 | 3.44507 | 114.11145 | 37883 ft | 478 kts | 217° |
| 2026-05-06 10:58 | 3.39296 | 114.07031 | 37892 ft | 478 kts | 217° |
| 2026-05-06 10:58 | 3.34086 | 114.02916 | 37892 ft | 479 kts | 217° |
| 2026-05-06 10:59 | 3.28847 | 113.98779 | 37885 ft | 479 kts | 217° |
| 2026-05-06 10:59 | 3.23596 | 113.94635 | 37886 ft | 479 kts | 217° |
| 2026-05-06 11:00 | 3.18347 | 113.90492 | 37884 ft | 478 kts | 217° |
| 2026-05-06 11:00 | 3.13133 | 113.86378 | 37885 ft | 478 kts | 217° |
| 2026-05-06 11:01 | 3.07905 | 113.82252 | 37893 ft | 478 kts | 217° |
| 2026-05-06 11:01 | 3.02716 | 113.78158 | 37903 ft | 478 kts | 217° |
| 2026-05-06 11:02 | 2.97472 | 113.74019 | 37913 ft | 479 kts | 217° |
| 2026-05-06 11:02 | 2.92226 | 113.69878 | 37903 ft | 479 kts | 217° |
| 2026-05-06 11:03 | 2.86992 | 113.65749 | 37894 ft | 479 kts | 217° |
| 2026-05-06 11:03 | 2.81746 | 113.61604 | 37891 ft | 479 kts | 217° |
| 2026-05-06 11:04 | 2.76500 | 113.57465 | 37902 ft | 479 kts | 217° |
| 2026-05-06 11:04 | 2.71277 | 113.53367 | 37911 ft | 479 kts | 217° |
| 2026-05-06 11:05 | 2.66010 | 113.49239 | 37909 ft | 480 kts | 217° |
| 2026-05-06 11:05 | 2.60758 | 113.45119 | 37889 ft | 480 kts | 217° |
| 2026-05-06 11:06 | 2.55494 | 113.40987 | 37875 ft | 480 kts | 217° |
| 2026-05-06 11:06 | 2.50256 | 113.36873 | 37856 ft | 480 kts | 217° |
| 2026-05-06 11:07 | 2.44976 | 113.32722 | 37860 ft | 480 kts | 217° |
| 2026-05-06 11:07 | 2.39729 | 113.28597 | 37869 ft | 481 kts | 217° |
| 2026-05-06 11:08 | 2.34445 | 113.24445 | 37867 ft | 482 kts | 217° |
| 2026-05-06 11:08 | 2.29185 | 113.20314 | 37865 ft | 483 kts | 217° |
| 2026-05-06 11:09 | 2.23901 | 113.16166 | 37864 ft | 482 kts | 217° |
| 2026-05-06 11:09 | 2.18628 | 113.12025 | 37864 ft | 481 kts | 217° |
| 2026-05-06 11:10 | 2.13341 | 113.07872 | 37854 ft | 482 kts | 217° |
| 2026-05-06 11:10 | 2.08069 | 113.03734 | 37847 ft | 483 kts | 217° |
| 2026-05-06 11:11 | 2.02791 | 112.99592 | 37849 ft | 483 kts | 217° |
| 2026-05-06 11:11 | 1.97490 | 112.95430 | 37849 ft | 484 kts | 217° |
| 2026-05-06 11:12 | 1.92203 | 112.91279 | 37855 ft | 483 kts | 217° |
| 2026-05-06 11:12 | 1.86899 | 112.87115 | 37856 ft | 483 kts | 217° |
| 2026-05-06 11:13 | 1.81607 | 112.82960 | 37860 ft | 483 kts | 217° |
| 2026-05-06 11:13 | 1.76318 | 112.78808 | 37861 ft | 483 kts | 217° |
| 2026-05-06 11:14 | 1.71017 | 112.74647 | 37864 ft | 483 kts | 217° |
| 2026-05-06 11:14 | 1.65746 | 112.70509 | 37870 ft | 483 kts | 217° |
| 2026-05-06 11:15 | 1.60468 | 112.66361 | 37875 ft | 483 kts | 217° |
| 2026-05-06 11:15 | 1.55172 | 112.62212 | 37877 ft | 483 kts | 217° |
| 2026-05-06 11:16 | 1.49840 | 112.58083 | 37888 ft | 483 kts | 216° |
| 2026-05-06 11:16 | 1.47203 | 112.56043 | 37892 ft | 483 kts | 216° |